Terminal Aerodrome Forecast
Issued by NWS

Home | Current Version | Previous Version | Text Only | Print | Product List | Glossary On
Versions: 1 2 3 4 5 6 7 8 9 10 11 12 13 14 15 16 17 18 19 20 21 22 23 24 25 26 27 28 29 30 31 32 33 34 35 36 37 38 39 40 41 42 43 44
000
FTUS45 KGJT 240020 AAA
TAFASE
TAF AMD
KASE 240020Z 2400/2424 35006KT 1SM -SN BR SCT003 OVC009
      TEMPO 2400/2403 4SM -SN BR SCT009 BKN020
     FM240300 36004KT 3SM -SHRASN OVC015
     FM240500 32007KT 1SM -SHSN OVC008
     FM241100 32011G19KT P6SM VCSH OVC025
     FM241500 33004KT P6SM VCSH BKN035
     FM241800 00000KT P6SM SCT045 BKN090=

USA.gov is the U.S. government's official web portal to all federal, state and local government web resources and services.